Time;durP1;ratioP1;P1;durP2;ratioP2;P2;SDS_P1;SDS_P2;PMS_P1;PMS_P2;Temp;Humidity;BMP_temperature;BMP_pressure;BME280_temperature;BME280_humidity;BME280_pressure;Samples;Min_cycle;Max_cycle;Signal;HPM_P1;HPM_P2
2024/05/03 00:01:49;;;;;;;0.65;0.55;;;;;;;9.06;52.55;97699.38;5393635;26;20097;-44
2024/05/03 00:04:19;;;;;;;0.45;0.45;;;;;;;8.83;53.10;97688.94;5398301;26;20003;-45
2024/05/03 00:06:48;;;;;;;0.47;0.47;;;;;;;9.26;52.66;97685.72;5398388;26;20608;-46
2024/05/03 00:09:18;;;;;;;0.40;0.40;;;;;;;9.32;52.00;97694.50;5394967;26;20489;-46
2024/05/03 00:11:50;;;;;;;0.50;0.50;;;;;;;9.48;51.52;97690.25;5394835;26;21067;-45
2024/05/03 00:14:19;;;;;;;0.50;0.50;;;;;;;9.72;50.75;97682.19;5395595;26;20008;-45
2024/05/03 00:16:49;;;;;;;0.80;0.43;;;;;;;9.73;50.86;97684.59;5397256;26;21335;-45
2024/05/03 00:19:19;;;;;;;1.13;0.57;;;;;;;10.15;49.78;97680.66;5396930;26;22156;-46
2024/05/03 00:21:48;;;;;;;2.25;1.20;;;;;;;10.15;49.19;97684.09;5393142;26;20080;-45
2024/05/03 00:24:18;;;;;;;0.75;0.75;;;;;;;10.21;49.55;97692.88;5398369;26;20523;-45
2024/05/03 00:26:52;;;;;;;0.43;0.43;;;;;;;10.18;49.60;97690.72;5393045;26;20003;-46
2024/05/03 00:29:22;;;;;;;0.52;0.52;;;;;;;10.14;49.00;97698.34;5397817;26;19999;-46
2024/05/03 00:31:51;;;;;;;0.50;0.50;;;;;;;10.24;49.28;97703.75;5397294;26;20462;-46
2024/05/03 00:34:21;;;;;;;1.00;1.00;;;;;;;10.29;48.99;97704.84;5400540;26;20387;-45
2024/05/03 00:36:50;;;;;;;0.90;0.90;;;;;;;10.34;49.27;97710.19;5399375;26;20655;-46
2024/05/03 00:39:20;;;;;;;0.47;0.47;;;;;;;9.92;49.89;97714.13;5402494;26;20015;-45
2024/05/03 00:41:52;;;;;;;0.90;0.90;;;;;;;9.80;50.28;97716.03;5402092;26;20073;-46
2024/05/03 00:44:22;;;;;;;0.63;0.63;;;;;;;10.07;49.98;97715.41;5398410;26;20693;-46
2024/05/03 00:46:53;;;;;;;0.50;0.50;;;;;;;10.31;49.03;97708.84;5401745;26;20000;-46
2024/05/03 00:49:24;;;;;;;1.02;0.90;;;;;;;10.40;48.62;97706.56;5398624;26;20891;-45
2024/05/03 00:51:53;;;;;;;0.47;0.47;;;;;;;10.66;48.39;97715.56;5397663;26;21613;-45
2024/05/03 00:54:23;;;;;;;0.60;0.60;;;;;;;10.57;48.10;97707.28;5401518;26;20853;-46
2024/05/03 00:56:56;;;;;;;0.57;0.57;;;;;;;10.70;48.04;97715.88;5399715;26;20138;-46
2024/05/03 00:59:26;;;;;;;0.50;0.50;;;;;;;10.48;48.62;97713.25;5393828;26;20810;-46
2024/05/03 01:01:56;;;;;;;0.47;0.47;;;;;;;10.43;48.80;97714.78;5399087;26;22043;-47
2024/05/03 01:04:26;;;;;;;0.40;0.40;;;;;;;10.71;48.25;97720.91;5396158;26;20988;-46
2024/05/03 01:06:56;;;;;;;1.35;1.08;;;;;;;10.71;47.75;97715.63;5401140;26;21707;-46
2024/05/03 01:09:26;;;;;;;0.70;0.70;;;;;;;10.71;47.94;97717.47;5397227;26;22039;-46
2024/05/03 01:11:58;;;;;;;1.85;0.70;;;;;;;10.78;48.12;97726.00;5401103;26;20361;-46
2024/05/03 01:14:27;;;;;;;0.50;0.50;;;;;;;10.81;47.76;97728.16;5398071;26;20951;-45
2024/05/03 01:16:57;;;;;;;0.52;0.47;;;;;;;10.35;48.89;97722.38;5398110;26;20607;-46
2024/05/03 01:19:26;;;;;;;1.83;0.40;;;;;;;10.62;48.08;97728.47;5396126;26;19999;-46
2024/05/03 01:22:03;;;;;;;0.38;0.38;;;;;;;10.11;49.50;97729.72;5399560;26;20072;-46
2024/05/03 01:24:36;;;;;;;1.58;0.45;;;;;;;10.44;48.56;97737.50;5398318;26;22729;-46
2024/05/03 01:27:06;;;;;;;1.70;0.68;;;;;;;10.05;49.68;97734.13;5398011;26;20016;-46
2024/05/03 01:29:35;;;;;;;0.45;0.40;;;;;;;10.19;49.18;97738.00;5401182;26;20019;-45
2024/05/03 01:32:05;;;;;;;0.80;0.80;;;;;;;9.88;50.01;97746.53;5398791;26;20043;-46
2024/05/03 01:34:35;;;;;;;0.90;0.90;;;;;;;9.86;49.72;97747.56;5400638;26;20011;-46
2024/05/03 01:37:04;;;;;;;2.03;0.60;;;;;;;10.22;49.08;97750.72;5397250;26;20012;-46
2024/05/03 01:39:36;;;;;;;0.50;0.50;;;;;;;10.40;48.87;97767.28;5398556;26;20200;-45
2024/05/03 01:42:06;;;;;;;0.77;0.77;;;;;;;10.18;48.99;97768.06;5399507;26;20011;-46
2024/05/03 01:44:36;;;;;;;0.45;0.45;;;;;;;10.00;49.56;97771.78;5398454;26;19999;-47
2024/05/03 01:47:06;;;;;;;0.90;0.90;;;;;;;10.25;48.69;97768.69;5401063;26;20012;-46
2024/05/03 01:49:35;;;;;;;0.50;0.50;;;;;;;10.42;48.46;97770.50;5399942;26;20448;-44
2024/05/03 01:52:05;;;;;;;0.50;0.50;;;;;;;10.37;48.40;97773.88;5399116;26;20121;-46
2024/05/03 01:54:37;;;;;;;0.52;0.52;;;;;;;10.15;49.00;97775.69;5400542;26;21604;-46
2024/05/03 01:57:07;;;;;;;1.30;0.93;;;;;;;9.84;49.51;97791.88;5399686;26;20016;-47
2024/05/03 01:59:37;;;;;;;0.93;0.43;;;;;;;10.03;49.50;97789.00;5398925;26;20609;-46
2024/05/03 02:02:06;;;;;;;0.90;0.47;;;;;;;9.71;50.34;97792.16;5399163;26;20753;-46
2024/05/03 02:04:36;;;;;;;1.33;0.55;;;;;;;9.91;49.60;97786.44;5399714;26;20025;-46
2024/05/03 02:07:05;;;;;;;1.10;0.88;;;;;;;9.75;50.07;97785.38;5400955;26;20077;-46
2024/05/03 02:09:38;;;;;;;2.72;0.47;;;;;;;9.88;50.01;97788.75;5245055;27;20006;-46
2024/05/03 02:12:07;;;;;;;0.40;0.40;;;;;;;9.32;50.92;97799.94;5246542;27;20774;-46
2024/05/03 02:14:37;;;;;;;0.40;0.40;;;;;;;9.42;51.20;97789.59;5244155;27;20053;-46
2024/05/03 02:17:06;;;;;;;0.38;0.38;;;;;;;9.97;49.64;97800.50;5242316;27;20615;-46
2024/05/03 02:19:36;;;;;;;0.28;0.28;;;;;;;10.18;48.95;97791.81;5256079;27;20007;-46
2024/05/03 02:22:05;;;;;;;0.38;0.32;;;;;;;10.32;48.44;97796.78;5246833;27;20017;-46
2024/05/03 02:24:38;;;;;;;0.82;0.50;;;;;;;10.42;48.19;97792.41;5249931;27;20011;-46
2024/05/03 02:27:07;;;;;;;0.80;0.80;;;;;;;10.58;47.70;97796.06;5272871;26;20594;-45
2024/05/03 02:29:37;;;;;;;0.47;0.47;;;;;;;10.46;47.94;97798.00;5387010;26;20081;-46
2024/05/03 02:32:07;;;;;;;0.80;0.80;;;;;;;10.61;47.84;97805.31;5385563;26;20825;-45
2024/05/03 02:34:37;;;;;;;1.00;1.00;;;;;;;10.74;47.28;97798.88;5386842;26;20034;-46
2024/05/03 02:37:07;;;;;;;0.82;0.50;;;;;;;10.59;47.51;97802.13;5386109;26;20004;-46
2024/05/03 02:39:39;;;;;;;0.45;0.30;;;;;;;10.66;47.26;97799.31;5387552;26;20004;-46
2024/05/03 02:42:08;;;;;;;0.85;0.85;;;;;;;10.41;47.48;97804.00;5388070;26;21245;-46
2024/05/03 02:44:38;;;;;;;0.40;0.40;;;;;;;10.53;47.60;97811.84;5394063;26;20016;-46
2024/05/03 02:47:07;;;;;;;0.88;0.88;;;;;;;10.65;47.05;97811.72;5396186;26;20376;-46
2024/05/03 02:49:37;;;;;;;0.88;0.88;;;;;;;10.47;47.52;97804.09;5393198;26;20244;-46
2024/05/03 02:52:07;;;;;;;0.82;0.82;;;;;;;10.83;46.72;97809.81;5390200;26;20010;-45
2024/05/03 02:54:39;;;;;;;0.95;0.85;;;;;;;10.76;46.48;97807.34;5401548;26;20016;-46
2024/05/03 02:57:09;;;;;;;0.55;0.55;;;;;;;10.58;47.04;97813.75;5400638;26;20373;-46
2024/05/03 02:59:40;;;;;;;0.57;0.50;;;;;;;10.39;47.69;97819.31;5402130;26;20022;-46
2024/05/03 03:02:10;;;;;;;0.30;0.30;;;;;;;10.55;47.48;97822.94;5402049;26;19999;-46
2024/05/03 03:04:42;;;;;;;1.85;0.45;;;;;;;10.51;47.46;97819.22;5400871;26;20502;-45
2024/05/03 03:07:12;;;;;;;0.77;0.50;;;;;;;10.74;46.71;97822.66;5401413;26;20003;-45
2024/05/03 03:09:44;;;;;;;0.30;0.30;;;;;;;11.00;46.41;97823.78;5401071;26;20003;-46
2024/05/03 03:12:13;;;;;;;0.68;0.68;;;;;;;11.08;46.01;97831.25;5398961;26;20004;-46
2024/05/03 03:14:43;;;;;;;0.82;0.43;;;;;;;10.96;46.20;97820.81;5400979;26;20000;-46
2024/05/03 03:17:13;;;;;;;0.90;0.45;;;;;;;10.85;46.52;97834.94;5399997;26;20014;-46
2024/05/03 03:19:42;;;;;;;1.77;0.43;;;;;;;10.73;46.44;97840.34;5399168;26;20341;-46
2024/05/03 03:22:12;;;;;;;1.02;1.02;;;;;;;10.90;46.17;97842.97;5399872;26;20003;-46
2024/05/03 03:24:44;;;;;;;0.70;0.70;;;;;;;11.12;45.97;97842.16;5400587;26;20007;-45
2024/05/03 03:27:15;;;;;;;0.47;0.47;;;;;;;10.68;46.79;97850.03;5401160;26;20004;-46
2024/05/03 03:29:47;;;;;;;0.38;0.38;;;;;;;10.68;46.93;97850.03;5399243;26;20077;-46
2024/05/03 03:32:17;;;;;;;0.57;0.40;;;;;;;10.95;46.12;97858.09;5400258;26;20073;-45
2024/05/03 03:34:46;;;;;;;0.60;0.60;;;;;;;10.96;45.84;97857.03;5398214;26;20007;-46
2024/05/03 03:37:16;;;;;;;3.50;0.70;;;;;;;10.37;47.34;97857.56;5399775;26;20085;-46
2024/05/03 03:39:49;;;;;;;0.85;0.85;;;;;;;10.87;46.43;97856.66;5398766;26;20016;-47
2024/05/03 03:42:18;;;;;;;0.38;0.38;;;;;;;11.10;45.90;97866.19;5398997;26;20738;-46
2024/05/03 03:44:48;;;;;;;0.93;0.93;;;;;;;10.99;46.03;97867.91;5399856;26;20012;-46
2024/05/03 03:47:18;;;;;;;0.38;0.38;;;;;;;11.02;46.09;97868.47;5397805;26;20004;-46
2024/05/03 03:49:47;;;;;;;0.80;0.80;;;;;;;10.92;45.97;97874.44;5400016;26;20004;-46
2024/05/03 03:52:17;;;;;;;0.85;0.75;;;;;;;10.93;46.02;97878.66;5399297;26;20455;-46
2024/05/03 03:54:49;;;;;;;0.50;0.50;;;;;;;10.84;46.42;97885.38;5399664;26;20070;-46
2024/05/03 03:57:19;;;;;;;1.13;1.02;;;;;;;10.77;46.64;97888.22;5398009;26;20010;-46
2024/05/03 03:59:48;;;;;;;1.25;1.10;;;;;;;10.91;46.44;97893.97;5399799;26;20018;-46
2024/05/03 04:02:18;;;;;;;0.40;0.40;;;;;;;10.74;46.49;97894.78;5398809;26;20202;-46
2024/05/03 04:04:47;;;;;;;1.13;0.73;;;;;;;10.93;46.25;97897.16;5398780;26;20342;-46
2024/05/03 04:07:17;;;;;;;1.17;1.08;;;;;;;11.03;46.02;97907.06;5398818;26;20027;-45
2024/05/03 04:09:49;;;;;;;1.02;0.90;;;;;;;11.17;45.69;97905.66;5401925;26;20073;-46
2024/05/03 04:12:19;;;;;;;0.85;0.47;;;;;;;10.90;46.31;97909.03;5389484;26;19996;-46
2024/05/03 04:14:48;;;;;;;0.50;0.47;;;;;;;10.61;47.13;97914.44;5398466;26;20015;-45
2024/05/03 04:17:18;;;;;;;0.75;0.60;;;;;;;10.66;46.74;97913.69;5398427;26;20392;-45
2024/05/03 04:19:47;;;;;;;0.95;0.47;;;;;;;10.80;46.46;97914.94;5391888;26;20004;-46
2024/05/03 04:22:17;;;;;;;0.70;0.70;;;;;;;10.89;46.20;97909.28;5392592;26;20784;-46
2024/05/03 04:24:49;;;;;;;0.68;0.43;;;;;;;11.02;45.94;97911.56;5397289;26;21612;-45
2024/05/03 04:27:19;;;;;;;1.08;1.08;;;;;;;11.21;45.54;97921.81;5401548;26;20617;-45
2024/05/03 04:29:48;;;;;;;0.95;0.95;;;;;;;11.12;45.44;97924.88;5391239;26;20252;-45
2024/05/03 04:32:18;;;;;;;0.93;0.88;;;;;;;11.25;45.56;97922.91;5386250;26;20941;-45
2024/05/03 04:34:47;;;;;;;0.57;0.57;;;;;;;11.39;45.17;97937.38;5400211;26;19995;-45
2024/05/03 04:37:17;;;;;;;0.28;0.28;;;;;;;11.34;44.88;97935.47;5401056;26;20922;-45
2024/05/03 04:39:49;;;;;;;0.50;0.40;;;;;;;11.13;45.51;97931.78;5329045;26;20160;-44
2024/05/03 04:42:18;;;;;;;1.95;0.90;;;;;;;10.86;46.05;97942.28;5320325;26;22052;-45
2024/05/03 04:44:48;;;;;;;0.63;0.63;;;;;;;10.79;46.27;97946.91;5326355;26;20001;-45
2024/05/03 04:47:20;;;;;;;0.40;0.40;;;;;;;10.94;45.74;97936.56;5333001;26;20004;-45
2024/05/03 04:49:49;;;;;;;0.30;0.30;;;;;;;11.06;45.47;97948.88;5326151;26;20949;-45
2024/05/03 04:52:19;;;;;;;1.13;1.13;;;;;;;11.06;45.32;97959.47;5328023;26;21585;-44
2024/05/03 04:54:51;;;;;;;0.82;0.70;;;;;;;11.03;45.53;97963.38;5328978;26;20005;-45
2024/05/03 04:57:20;;;;;;;0.70;0.57;;;;;;;10.69;46.22;97970.53;5341730;26;20605;-45
2024/05/03 04:59:50;;;;;;;1.20;0.60;;;;;;;10.57;46.29;97973.25;5402075;26;20013;-44
2024/05/03 05:02:19;;;;;;;1.27;1.17;;;;;;;10.16;47.28;97969.97;5400407;26;19999;-44
2024/05/03 05:04:49;;;;;;;1.20;1.20;;;;;;;10.05;47.70;97976.91;5389366;26;20635;-45
2024/05/03 05:07:20;;;;;;;0.52;0.52;;;;;;;10.09;47.63;97983.31;5381815;26;20012;-45
2024/05/03 05:09:52;;;;;;;0.50;0.50;;;;;;;9.80;48.48;97987.78;5385434;26;20386;-46
2024/05/03 05:12:22;;;;;;;0.73;0.73;;;;;;;9.84;48.39;97995.03;5376270;26;22896;-45
2024/05/03 05:14:51;;;;;;;1.05;1.05;;;;;;;10.21;47.65;98004.38;5390074;26;19996;-45
2024/05/03 05:17:21;;;;;;;1.00;1.00;;;;;;;10.22;47.86;97998.88;5386105;26;20015;-44
2024/05/03 05:19:52;;;;;;;1.05;1.05;;;;;;;10.24;47.52;98004.72;5391241;26;20008;-45
2024/05/03 05:22:19;;;;;;;0.90;0.70;;;;;;;10.32;47.26;98002.72;5393328;26;20607;-45
2024/05/03 05:24:49;;;;;;;0.50;0.50;;;;;;;10.44;46.76;98006.88;5394189;26;20379;-44
2024/05/03 05:27:21;;;;;;;0.70;0.70;;;;;;;10.51;47.16;98009.38;5393831;26;20084;-44
2024/05/03 05:29:51;;;;;;;0.47;0.47;;;;;;;10.45;47.23;98015.59;5393573;26;20080;-45
2024/05/03 05:32:21;;;;;;;0.40;0.40;;;;;;;10.58;46.73;98020.56;5393936;26;21159;-44
2024/05/03 05:34:50;;;;;;;1.08;0.73;;;;;;;10.63;46.68;98025.16;5394244;26;20035;-43
2024/05/03 05:37:20;;;;;;;0.43;0.43;;;;;;;10.86;46.04;98018.91;5392596;26;20414;-45
2024/05/03 05:39:49;;;;;;;1.20;1.20;;;;;;;10.83;46.04;98029.94;5393260;26;20019;-45
2024/05/03 05:42:21;;;;;;;0.57;0.57;;;;;;;10.75;46.25;98041.72;5393499;26;19999;-44
2024/05/03 05:44:51;;;;;;;0.95;0.60;;;;;;;10.81;46.30;98039.94;5392991;26;20018;-45
2024/05/03 05:47:21;;;;;;;0.52;0.52;;;;;;;10.57;46.47;98036.66;5390771;26;21627;-44
2024/05/03 05:49:50;;;;;;;0.77;0.77;;;;;;;10.66;46.32;98050.28;5392131;26;20918;-45
2024/05/03 05:52:21;;;;;;;0.60;0.60;;;;;;;10.75;46.29;98052.28;5391093;26;20751;-44
2024/05/03 05:54:51;;;;;;;2.30;0.60;;;;;;;10.78;46.04;98051.78;5392000;26;20581;-45
2024/05/03 05:57:25;;;;;;;1.08;0.50;;;;;;;10.44;46.95;98057.06;5394272;26;20531;-45
2024/05/03 05:59:54;;;;;;;0.57;0.57;;;;;;;10.30;47.16;98057.59;5389970;26;21201;-45
2024/05/03 06:02:24;;;;;;;0.60;0.60;;;;;;;10.46;46.80;98061.31;5384686;26;20426;-45
2024/05/03 06:04:53;;;;;;;2.22;0.65;;;;;;;10.30;46.97;98068.16;5391325;26;20445;-45
2024/05/03 06:07:23;;;;;;;1.05;0.98;;;;;;;10.63;46.33;98070.06;5393324;26;22503;-45
2024/05/03 06:09:53;;;;;;;1.33;1.33;;;;;;;10.86;45.43;98069.13;5392409;26;20526;-44
2024/05/03 06:12:25;;;;;;;0.70;0.70;;;;;;;10.61;46.01;98080.84;5391816;26;20014;-44
2024/05/03 06:14:55;;;;;;;2.13;0.73;;;;;;;10.76;45.71;98090.88;5335149;26;20020;-45
2024/05/03 06:17:25;;;;;;;1.30;1.05;;;;;;;10.67;45.86;98094.94;5353211;26;21979;-44
2024/05/03 06:19:55;;;;;;;0.68;0.63;;;;;;;10.65;45.98;98090.91;5355165;26;20016;-45
2024/05/03 06:22:25;;;;;;;1.13;1.02;;;;;;;10.84;45.91;98099.44;5353692;26;21664;-45
2024/05/03 06:24:54;;;;;;;1.02;1.02;;;;;;;10.88;45.59;98100.59;5352125;26;21004;-45
2024/05/03 06:27:26;;;;;;;0.60;0.50;;;;;;;11.05;45.31;98111.94;5353229;26;22152;-45
2024/05/03 06:29:56;;;;;;;0.60;0.60;;;;;;;11.05;45.18;98113.81;5350470;26;21958;-44
2024/05/03 06:32:25;;;;;;;0.57;0.55;;;;;;;11.18;44.79;98119.56;5360918;26;21874;-45
2024/05/03 06:34:55;;;;;;;0.85;0.68;;;;;;;11.13;44.78;98127.41;5392054;26;20780;-45
2024/05/03 06:37:29;;;;;;;0.50;0.50;;;;;;;11.07;44.87;98136.34;5392544;26;20055;-44
2024/05/03 06:39:58;;;;;;;2.35;1.50;;;;;;;11.29;44.30;98143.53;5392970;26;21459;-45
2024/05/03 06:42:32;;;;;;;0.68;0.68;;;;;;;11.36;43.73;98137.03;5391217;26;20986;-44
2024/05/03 06:45:02;;;;;;;0.65;0.65;;;;;;;11.53;43.82;98141.47;5390093;26;20796;-45
2024/05/03 06:47:31;;;;;;;0.60;0.60;;;;;;;11.70;43.35;98131.66;5392240;26;20435;-44
2024/05/03 06:50:01;;;;;;;1.20;1.20;;;;;;;11.84;42.96;98144.59;5393627;26;20088;-45
2024/05/03 06:52:31;;;;;;;0.60;0.60;;;;;;;11.87;42.67;98152.84;5391874;26;20794;-45
2024/05/03 06:55:00;;;;;;;1.17;1.17;;;;;;;12.00;42.41;98153.50;5391008;26;20011;-45
2024/05/03 06:57:33;;;;;;;1.02;1.02;;;;;;;12.06;42.06;98153.34;5391652;26;21287;-44
2024/05/03 07:00:02;;;;;;;1.00;1.00;;;;;;;11.98;41.70;98158.25;5391434;26;21875;-43
2024/05/03 07:02:32;;;;;;;0.85;0.85;;;;;;;12.05;41.99;98158.88;5391031;26;20497;-44
2024/05/03 07:05:02;;;;;;;0.98;0.98;;;;;;;12.10;41.54;98165.03;5391904;26;20007;-43
2024/05/03 07:07:31;;;;;;;1.05;1.02;;;;;;;12.09;41.61;98165.28;5392519;26;20912;-44
2024/05/03 07:10:01;;;;;;;1.25;1.25;;;;;;;12.01;41.68;98163.88;5390953;26;22372;-45
2024/05/03 07:12:33;;;;;;;0.95;0.90;;;;;;;12.16;41.25;98175.69;5389613;26;20069;-45
2024/05/03 07:15:03;;;;;;;1.08;1.00;;;;;;;12.18;40.76;98178.88;5394285;26;21130;-45
2024/05/03 07:17:32;;;;;;;1.17;1.08;;;;;;;12.25;41.25;98187.44;5402124;26;20601;-45
2024/05/03 07:20:01;;;;;;;1.23;1.13;;;;;;;12.09;40.10;98189.88;5405291;26;20003;-43
2024/05/03 07:22:31;;;;;;;1.25;1.20;;;;;;;11.94;40.40;98192.38;5402675;26;21704;-45
2024/05/03 07:25:01;;;;;;;1.42;1.30;;;;;;;11.66;41.14;98190.63;5401981;26;20060;-45
2024/05/03 07:27:33;;;;;;;2.17;1.23;;;;;;;11.82;41.49;98194.31;5401942;26;20014;-44
2024/05/03 07:30:03;;;;;;;0.88;0.80;;;;;;;11.96;41.53;98190.28;5407176;26;21666;-45
2024/05/03 07:32:32;;;;;;;1.10;0.70;;;;;;;12.01;41.90;98189.53;5404612;26;20026;-45
2024/05/03 07:35:02;;;;;;;0.90;0.90;;;;;;;12.11;41.60;98192.28;5401665;26;20053;-44
2024/05/03 07:37:32;;;;;;;0.82;0.82;;;;;;;12.02;41.93;98201.72;5405251;26;20077;-45
2024/05/03 07:40:02;;;;;;;0.75;0.70;;;;;;;12.04;42.25;98208.38;5403664;26;20015;-45
2024/05/03 07:42:34;;;;;;;1.20;0.98;;;;;;;12.14;41.71;98205.06;5406124;26;20456;-45
2024/05/03 07:45:01;;;;;;;1.52;1.42;;;;;;;12.03;42.04;98211.28;5403027;26;20011;-44
2024/05/03 07:47:31;;;;;;;1.17;0.77;;;;;;;11.75;41.96;98212.97;5404124;26;20620;-45
2024/05/03 07:50:00;;;;;;;0.70;0.70;;;;;;;11.70;42.01;98221.63;5402351;26;20012;-44
2024/05/03 07:52:30;;;;;;;1.27;0.80;;;;;;;11.91;42.27;98222.75;5402769;26;20092;-42
2024/05/03 07:54:59;;;;;;;1.40;1.40;;;;;;;11.87;41.31;98234.09;5405636;26;20479;-44
2024/05/03 07:57:29;;;;;;;1.63;1.05;;;;;;;11.74;41.01;98240.47;5404981;26;22072;-45
2024/05/03 08:00:01;;;;;;;1.40;1.30;;;;;;;11.69;41.73;98235.94;5403460;26;20779;-46
2024/05/03 08:02:30;;;;;;;0.95;0.88;;;;;;;11.74;42.03;98241.28;5406320;26;20410;-45
2024/05/03 08:05:00;;;;;;;1.30;1.23;;;;;;;11.92;41.91;98236.81;5403114;26;20591;-45
2024/05/03 08:07:30;;;;;;;1.50;1.42;;;;;;;11.93;42.00;98236.53;5404704;26;20994;-45
2024/05/03 08:09:59;;;;;;;1.85;1.20;;;;;;;11.90;41.73;98236.22;5405647;26;20823;-45
2024/05/03 08:12:29;;;;;;;1.42;1.33;;;;;;;11.86;41.85;98235.91;5404346;26;19999;-44
2024/05/03 08:15:01;;;;;;;1.63;0.88;;;;;;;11.68;41.85;98244.91;5399925;26;20501;-45
2024/05/03 08:17:30;;;;;;;2.05;1.08;;;;;;;11.83;41.33;98240.91;5389366;26;20793;-45
2024/05/03 08:20:00;;;;;;;1.33;1.30;;;;;;;11.92;41.41;98242.13;5390158;26;20582;-45
2024/05/03 08:22:32;;;;;;;1.73;1.50;;;;;;;12.03;40.85;98241.19;5390847;26;20464;-45
2024/05/03 08:25:02;;;;;;;0.70;0.70;;;;;;;12.23;40.69;98242.50;5387939;26;21111;-45
2024/05/03 08:27:31;;;;;;;1.55;1.45;;;;;;;12.40;40.21;98237.16;5389685;26;21111;-45
2024/05/03 08:30:04;;;;;;;0.90;0.90;;;;;;;12.33;40.02;98242.63;5390584;26;20571;-45
2024/05/03 08:32:33;;;;;;;2.08;1.15;;;;;;;12.59;40.35;98250.88;5390330;26;20753;-45
2024/05/03 08:35:03;;;;;;;1.77;1.08;;;;;;;12.68;40.04;98244.91;5389413;26;20699;-46
2024/05/03 08:37:33;;;;;;;1.25;1.15;;;;;;;12.89;38.96;98240.66;5389359;26;20665;-45
2024/05/03 08:40:02;;;;;;;1.55;1.48;;;;;;;13.03;37.42;98245.53;5385974;26;20496;-45
2024/05/03 08:42:43;;;;;;;3.13;1.48;;;;;;;12.98;37.51;98238.34;5387058;26;20008;-52
2024/05/03 08:45:24;;;;;;;0.90;0.90;;;;;;;13.23;37.68;98237.00;5386979;26;20019;-45
2024/05/03 08:48:04;;;;;;;0.88;0.80;;;;;;;13.44;37.17;98235.31;5384305;26;21653;-45
2024/05/03 08:50:37;;;;;;;0.93;0.80;;;;;;;13.53;38.15;98230.34;5388361;26;22036;-45
2024/05/03 08:53:11;;;;;;;2.15;0.90;;;;;;;13.54;36.58;98229.25;5386649;26;21733;-45
2024/05/03 08:55:41;;;;;;;1.10;1.00;;;;;;;13.20;37.40;98246.25;5390119;26;20899;-46
2024/05/03 08:58:11;;;;;;;3.20;1.08;;;;;;;13.31;36.95;98247.13;5393411;26;20011;-44
2024/05/03 09:00:45;;;;;;;2.45;2.15;;;;;;;13.38;36.63;98245.09;5393372;26;20003;-45
2024/05/03 09:03:15;;;;;;;1.35;1.25;;;;;;;13.45;36.76;98242.19;5392568;26;22101;-45
2024/05/03 09:05:45;;;;;;;1.23;1.13;;;;;;;13.54;36.99;98251.31;5394028;26;20469;-45
2024/05/03 09:08:18;;;;;;;2.17;0.90;;;;;;;13.60;36.14;98247.63;5394184;26;20596;-44
2024/05/03 09:10:49;;;;;;;1.77;1.63;;;;;;;13.56;35.83;98254.50;5392316;26;20792;-45
2024/05/03 09:13:19;;;;;;;0.93;0.85;;;;;;;13.45;36.80;98250.97;5392647;26;20011;-45
2024/05/03 09:15:52;;;;;;;2.42;1.38;;;;;;;13.57;35.97;98250.78;5392693;26;20722;-45
2024/05/03 09:18:22;;;;;;;2.15;1.00;;;;;;;13.52;36.25;98261.34;5391804;26;21102;-45
2024/05/03 09:20:52;;;;;;;1.20;1.20;;;;;;;13.49;36.71;98253.09;5391883;26;21076;-45
2024/05/03 09:23:23;;;;;;;1.45;0.88;;;;;;;13.63;36.63;98262.28;5391455;26;21737;-45
2024/05/03 09:25:58;;;;;;;1.85;1.13;;;;;;;13.68;34.76;98257.00;5391850;26;20004;-45
2024/05/03 09:28:28;;;;;;;2.78;1.20;;;;;;;13.54;35.10;98277.03;5392410;26;21691;-45
2024/05/03 09:31:00;;;;;;;1.67;1.50;;;;;;;13.39;35.01;98270.56;5393704;26;20023;-45
2024/05/03 09:33:30;;;;;;;1.15;1.02;;;;;;;13.37;35.24;98269.22;5392819;26;20025;-45
2024/05/03 09:35:59;;;;;;;1.52;1.00;;;;;;;13.21;34.44;98271.72;5392502;26;20012;-45
2024/05/03 09:38:29;;;;;;;2.03;1.27;;;;;;;13.18;35.44;98264.25;5392070;26;20077;-45
2024/05/03 09:40:59;;;;;;;2.55;1.15;;;;;;;13.50;35.09;98268.00;5392998;26;20175;-46
2024/05/03 09:43:29;;;;;;;1.58;1.48;;;;;;;13.42;34.69;98256.00;5393228;26;20361;-46
2024/05/03 09:46:03;;;;;;;1.02;0.70;;;;;;;13.56;34.36;98264.31;5393321;26;21275;-45
2024/05/03 09:48:34;;;;;;;1.33;0.90;;;;;;;13.58;34.26;98268.31;5392333;26;20053;-45
2024/05/03 09:51:09;;;;;;;1.52;1.30;;;;;;;13.62;34.29;98264.13;5392009;26;20096;-45
2024/05/03 09:53:39;;;;;;;1.30;1.20;;;;;;;13.33;34.42;98260.97;5391402;26;20027;-45
2024/05/03 09:56:13;;;;;;;0.88;0.85;;;;;;;13.40;35.11;98277.47;5392950;26;20821;-45
2024/05/03 09:58:47;;;;;;;1.75;1.42;;;;;;;13.53;34.38;98270.16;5390986;26;20726;-46
2024/05/03 10:01:25;;;;;;;1.45;1.38;;;;;;;13.68;35.22;98277.44;5395327;26;20004;-46
2024/05/03 10:03:55;;;;;;;1.65;1.10;;;;;;;13.60;34.15;98273.38;5395313;26;20584;-46
2024/05/03 10:06:26;;;;;;;1.58;1.48;;;;;;;13.60;33.70;98276.81;5395291;26;19999;-47
2024/05/03 10:08:57;;;;;;;1.35;1.20;;;;;;;13.82;33.45;98273.28;5395873;26;20011;-46
2024/05/03 10:11:27;;;;;;;1.00;0.90;;;;;;;13.95;33.12;98278.16;5395042;26;20064;-46
2024/05/03 10:13:58;;;;;;;1.90;1.20;;;;;;;13.88;33.40;98268.81;5393993;26;21701;-45
2024/05/03 10:16:31;;;;;;;1.58;1.48;;;;;;;13.82;34.26;98270.63;5398625;26;20072;-46
2024/05/03 10:19:00;;;;;;;1.25;1.02;;;;;;;13.89;33.47;98287.16;5397535;26;20007;-45
2024/05/03 10:21:32;;;;;;;1.05;0.95;;;;;;;13.84;32.37;98276.50;5400476;26;20580;-46
2024/05/03 10:24:02;;;;;;;1.02;0.82;;;;;;;13.61;33.59;98282.94;5398686;26;20867;-45
2024/05/03 10:26:36;;;;;;;1.17;1.17;;;;;;;13.82;32.56;98284.72;5399426;26;22126;-46
2024/05/03 10:29:08;;;;;;;1.10;0.90;;;;;;;13.85;32.89;98287.94;5390505;26;21682;-46
2024/05/03 10:31:50;;;;;;;;;;;;;;;13.97;32.97;98294.66;5379902;26;20084;-46
2024/05/03 10:34:23;;;;;;;1.17;1.00;;;;;;;13.50;32.68;98294.53;5400314;26;21702;-46
2024/05/03 10:36:53;;;;;;;2.28;1.23;;;;;;;13.54;32.76;98300.91;5401075;26;20069;-46
2024/05/03 10:39:22;;;;;;;1.13;1.05;;;;;;;13.67;33.26;98294.44;5381422;26;20088;-45
2024/05/03 10:41:52;;;;;;;2.25;1.20;;;;;;;13.60;33.33;98305.22;5382352;26;20721;-46
2024/05/03 10:44:22;;;;;;;1.73;1.08;;;;;;;13.81;33.27;98303.56;5385464;26;20481;-46
2024/05/03 10:46:54;;;;;;;2.78;1.17;;;;;;;13.80;32.40;98305.41;5385771;26;20696;-45
2024/05/03 10:49:24;;;;;;;0.80;0.80;;;;;;;13.96;33.02;98306.31;5398423;26;22527;-46
2024/05/03 10:51:54;;;;;;;2.90;1.30;;;;;;;14.12;33.14;98306.41;5401748;26;21842;-46
2024/05/03 10:54:24;;;;;;;1.05;0.70;;;;;;;14.15;32.49;98309.38;5289620;26;20001;-44
2024/05/03 10:56:53;;;;;;;1.02;1.02;;;;;;;14.19;31.91;98307.00;5293682;27;20076;-45
2024/05/03 10:59:24;;;;;;;0.90;0.90;;;;;;;14.23;31.85;98302.78;5279403;26;20006;-45
2024/05/03 11:01:57;;;;;;;2.33;1.10;;;;;;;14.33;32.52;98310.00;5278621;26;20010;-45
2024/05/03 11:04:27;;;;;;;1.95;1.23;;;;;;;14.39;32.38;98303.66;5277728;26;22066;-46
2024/05/03 11:06:57;;;;;;;1.60;1.05;;;;;;;14.50;32.34;98308.00;5287500;26;20076;-46
2024/05/03 11:09:26;;;;;;;2.70;1.00;;;;;;;14.55;31.98;98310.69;5284626;26;21316;-45
2024/05/03 11:11:56;;;;;;;1.58;1.48;;;;;;;14.46;31.81;98319.38;5307827;26;20488;-46
2024/05/03 11:14:27;;;;;;;0.98;0.98;;;;;;;14.44;31.71;98316.97;5392752;26;20464;-46
2024/05/03 11:16:59;;;;;;;1.48;0.98;;;;;;;14.43;32.44;98314.59;5405857;26;21385;-46
2024/05/03 11:19:29;;;;;;;0.90;0.73;;;;;;;14.41;32.84;98312.19;5410447;26;22069;-46
2024/05/03 11:21:59;;;;;;;2.03;1.10;;;;;;;14.42;33.63;98318.28;5408987;26;21852;-45
2024/05/03 11:24:30;;;;;;;1.83;1.00;;;;;;;14.39;33.03;98317.75;5410509;26;20011;-45
2024/05/03 11:27:04;;;;;;;1.08;0.95;;;;;;;14.39;33.21;98315.09;5409826;26;21660;-45
2024/05/03 11:29:35;;;;;;;1.10;0.93;;;;;;;14.39;32.46;98312.44;5409522;26;20577;-46
2024/05/03 11:32:07;;;;;;;0.80;0.80;;;;;;;14.32;32.12;98314.53;5391055;26;20094;-46
2024/05/03 11:34:39;;;;;;;0.90;0.77;;;;;;;14.25;32.62;98321.91;5394851;26;20003;-46
2024/05/03 11:37:08;;;;;;;0.95;0.77;;;;;;;14.24;33.76;98333.59;5370689;26;20005;-45
2024/05/03 11:39:39;;;;;;;1.10;1.10;;;;;;;14.26;33.62;98336.78;5392548;26;20330;-46
2024/05/03 11:42:09;;;;;;;1.17;1.10;;;;;;;14.31;33.65;98338.69;5401072;26;20013;-45
2024/05/03 11:44:38;;;;;;;2.00;0.88;;;;;;;14.22;33.46;98335.72;5396685;26;20073;-46
2024/05/03 11:47:11;;;;;;;1.65;1.42;;;;;;;14.20;34.13;98338.63;5400143;26;20004;-46
2024/05/03 11:49:40;;;;;;;3.25;0.90;;;;;;;14.20;33.71;98335.19;5379104;26;21218;-45